Time;durP1;ratioP1;P1;durP2;ratioP2;P2;SDS_P1;SDS_P2;PMS_P1;PMS_P2;Temp;Humidity;BMP_temperature;BMP_pressure;BME280_temperature;BME280_humidity;BME280_pressure;Samples;Min_cycle;Max_cycle;Signal;HPM_P1;HPM_P2
2024/01/30 00:01:26;;;;;;;;;;;;;;;3.17;59.22;101413.69;4363925;32;33434;-81
2024/01/30 00:03:54;;;;;;;;;;;;;;;3.21;58.92;101409.72;4363540;32;34671;-82
2024/01/30 00:06:22;;;;;;;;;;;;;;;3.25;58.67;101415.97;4365443;32;33705;-83
2024/01/30 00:08:49;;;;;;;;;;;;;;;3.11;59.20;101404.66;4363733;32;33130;-83
2024/01/30 00:11:17;;;;;;;;;;;;;;;3.20;58.97;101405.38;4363582;32;33008;-83
2024/01/30 00:13:44;;;;;;;;;;;;;;;3.10;59.14;101407.97;4363116;32;32224;-85
2024/01/30 00:16:21;;;;;;;;;;;;;;;3.14;58.76;101404.88;4362907;32;34299;-84
2024/01/30 00:18:49;;;;;;;;;;;;;;;3.25;58.37;101413.41;4371313;32;33373;-83
2024/01/30 00:21:16;;;;;;;;;;;;;;;3.13;58.78;101413.34;4367501;32;34102;-84
2024/01/30 00:23:43;;;;;;;;;;;;;;;3.17;58.41;101412.81;4366537;32;34193;-84
2024/01/30 00:26:11;;;;;;;;;;;;;;;3.13;58.40;101415.91;4376505;32;34825;-87
2024/01/30 00:28:38;;;;;;;;;;;;;;;3.05;58.38;101411.84;4375497;32;33571;-83
2024/01/30 00:31:05;;;;;;;;;;;;;;;3.04;58.42;101420.31;4375179;32;34217;-83
2024/01/30 00:33:33;;;;;;;;;;;;;;;3.05;58.64;101422.09;4373937;32;34336;-84
2024/01/30 00:36:00;;;;;;;;;;;;;;;3.11;58.46;101420.94;4373983;32;34243;-86
2024/01/30 00:38:27;;;;;;;;;;;;;;;2.96;58.72;101421.41;4374764;32;34231;-85
2024/01/30 00:40:55;;;;;;;;;;;;;;;2.95;58.81;101427.28;4374334;32;34268;-84
2024/01/30 00:43:24;;;;;;;;;;;;;;;2.87;58.96;101427.56;4374381;32;34476;-86
2024/01/30 00:45:54;;;;;;;;;;;;;;;2.89;59.12;101428.59;4372330;32;34212;-86
2024/01/30 00:48:22;;;;;;;;;;;;;;;2.92;59.22;101433.97;4374384;32;32971;-84
2024/01/30 00:50:49;;;;;;;;;;;;;;;2.83;59.29;101433.22;4376619;32;33990;-86
2024/01/30 00:53:17;;;;;;;;;;;;;;;2.84;59.57;101429.91;4373653;32;33912;-86
2024/01/30 00:55:44;;;;;;;;;;;;;;;2.99;59.21;101434.44;4378246;32;33621;-85
2024/01/30 00:58:11;;;;;;;;;;;;;;;2.98;59.19;101423.28;4375883;32;33315;-86
2024/01/30 01:00:39;;;;;;;;;;;;;;;2.97;59.27;101420.63;4374007;32;34062;-84
2024/01/30 01:03:06;;;;;;;;;;;;;;;2.99;59.16;101424.19;4374654;32;34416;-86
2024/01/30 01:05:34;;;;;;;;;;;;;;;2.98;59.34;101422.41;4373612;32;32892;-84
2024/01/30 01:08:01;;;;;;;;;;;;;;;2.99;59.07;101414.81;4374906;32;34634;-83
2024/01/30 01:10:28;;;;;;;;;;;;;;;2.95;59.08;101419.59;4373456;32;33268;-85
2024/01/30 01:12:55;;;;;;;;;;;;;;;2.96;59.26;101413.72;4375196;32;34218;-84
2024/01/30 01:15:24;;;;;;;;;;;;;;;3.00;59.07;101413.19;4374864;32;35128;-86
2024/01/30 01:17:56;;;;;;;;;;;;;;;2.93;59.04;101414.34;4374963;32;34463;-83
2024/01/30 01:20:23;;;;;;;;;;;;;;;2.95;59.32;101412.78;4374188;32;34195;-84
2024/01/30 01:22:50;;;;;;;;;;;;;;;2.94;59.24;101411.00;4375754;32;35108;-83
2024/01/30 01:25:18;;;;;;;;;;;;;;;2.95;58.96;101404.22;4366403;32;34587;-83
2024/01/30 01:27:51;;;;;;;;;;;;;;;2.89;59.22;101409.75;4362605;32;34138;-84
2024/01/30 01:30:21;;;;;;;;;;;;;;;2.89;59.27;101408.09;4362906;32;33941;-84
2024/01/30 01:32:54;;;;;;;;;;;;;;;2.97;59.12;101403.56;4366477;32;33791;-86
2024/01/30 01:35:24;;;;;;;;;;;;;;;2.93;59.10;101398.97;4361390;32;32603;-83
2024/01/30 01:37:54;;;;;;;;;;;;;;;2.88;59.08;101395.16;4362291;32;33099;-86
2024/01/30 01:40:23;;;;;;;;;;;;;;;2.85;59.22;101395.81;4373371;32;34191;-84
2024/01/30 01:42:51;;;;;;;;;;;;;;;2.81;59.35;101401.47;4374367;32;35278;-86
2024/01/30 01:45:19;;;;;;;;;;;;;;;2.87;59.07;101391.69;4373632;32;35098;-84
2024/01/30 01:47:48;;;;;;;;;;;;;;;2.88;59.01;101393.50;4377821;32;33510;-84
2024/01/30 01:50:18;;;;;;;;;;;;;;;2.82;59.05;101395.56;4371147;32;35106;-86
2024/01/30 01:52:49;;;;;;;;;;;;;;;2.80;58.93;101386.84;4375330;32;34399;-83
2024/01/30 01:55:21;;;;;;;;;;;;;;;2.75;59.33;101389.84;4367754;32;34869;-83
2024/01/30 01:57:49;;;;;;;;;;;;;;;2.79;59.03;101392.75;4375558;32;33664;-83
2024/01/30 02:00:16;;;;;;;;;;;;;;;2.81;58.94;101391.22;4374832;32;34144;-84
2024/01/30 02:02:44;;;;;;;;;;;;;;;2.77;59.00;101391.75;4376098;32;34333;-86
2024/01/30 02:05:11;;;;;;;;;;;;;;;2.75;59.05;101392.41;4367483;32;34368;-84
2024/01/30 02:07:38;;;;;;;;;;;;;;;2.72;59.13;101387.91;4376026;32;32621;-83
2024/01/30 02:10:07;;;;;;;;;;;;;;;2.78;58.83;101393.53;4375650;32;33443;-83
2024/01/30 02:12:34;;;;;;;;;;;;;;;2.69;59.15;101387.69;4374837;32;34351;-87
2024/01/30 02:15:02;;;;;;;;;;;;;;;2.74;59.13;101388.94;4377311;32;35085;-84
2024/01/30 02:17:31;;;;;;;;;;;;;;;2.66;59.43;101382.31;4375679;32;34318;-85
2024/01/30 02:19:59;;;;;;;;;;;;;;;2.75;59.08;101385.59;4374450;32;34958;-84
2024/01/30 02:22:26;;;;;;;;;;;;;;;2.73;58.86;101384.59;4376339;32;33772;-84
2024/01/30 02:24:54;;;;;;;;;;;;;;;2.79;58.66;101382.50;4375740;32;35210;-86
2024/01/30 02:27:21;;;;;;;;;;;;;;;2.64;59.05;101383.84;4374687;32;33329;-84
2024/01/30 02:29:48;;;;;;;;;;;;;;;2.60;59.14;101386.94;4376952;32;34032;-85
2024/01/30 02:32:16;;;;;;;;;;;;;;;2.70;58.97;101380.91;4375609;32;34428;-83
2024/01/30 02:34:43;;;;;;;;;;;;;;;2.55;59.33;101380.56;4375688;32;34429;-84
2024/01/30 02:37:10;;;;;;;;;;;;;;;2.71;59.06;101388.69;4375889;32;33477;-86
2024/01/30 02:39:37;;;;;;;;;;;;;;;2.65;58.83;101376.31;4376002;32;34024;-84
2024/01/30 02:42:05;;;;;;;;;;;;;;;2.67;58.88;101374.75;4375715;32;33604;-84
2024/01/30 02:44:32;;;;;;;;;;;;;;;2.55;59.24;101383.13;4376571;32;34623;-85
2024/01/30 02:47:00;;;;;;;;;;;;;;;2.51;59.42;101381.09;4375785;32;33108;-84
2024/01/30 02:49:27;;;;;;;;;;;;;;;2.52;59.43;101385.44;4375613;32;35127;-83
2024/01/30 02:51:55;;;;;;;;;;;;;;;2.46;59.83;101385.81;4375016;32;35350;-84
2024/01/30 02:54:22;;;;;;;;;;;;;;;2.50;59.87;101379.28;4375347;32;35089;-84
2024/01/30 02:56:49;;;;;;;;;;;;;;;2.47;60.03;101384.19;4377686;32;33116;-86
2024/01/30 02:59:17;;;;;;;;;;;;;;;2.30;60.05;101376.03;4375989;32;35145;-84
2024/01/30 03:01:44;;;;;;;;;;;;;;;2.26;60.46;101384.22;4376433;32;36752;-87
2024/01/30 03:04:12;;;;;;;;;;;;;;;2.37;60.56;101388.53;4379608;32;34464;-84
2024/01/30 03:06:44;;;;;;;;;;;;;;;2.39;60.81;101389.59;4376145;32;33077;-85
2024/01/30 03:09:11;;;;;;;;;;;;;;;2.32;61.32;101386.41;4383904;32;34917;-84
2024/01/30 03:11:39;;;;;;;;;;;;;;;2.38;61.03;101390.31;4376514;32;34480;-84
2024/01/30 03:14:06;;;;;;;;;;;;;;;2.32;61.12;101376.16;4376491;32;35113;-84
2024/01/30 03:16:33;;;;;;;;;;;;;;;2.42;60.99;101382.16;4376635;32;33432;-85
2024/01/30 03:19:02;;;;;;;;;;;;;;;2.33;61.27;101386.50;4376381;32;34833;-85
2024/01/30 03:21:29;;;;;;;;;;;;;;;2.50;60.96;101387.91;4390316;32;34264;-86
2024/01/30 03:23:56;;;;;;;;;;;;;;;2.48;61.08;101388.53;4380562;32;34167;-84
2024/01/30 03:26:24;;;;;;;;;;;;;;;2.59;60.71;101392.84;4376493;32;34163;-84
2024/01/30 03:28:51;;;;;;;;;;;;;;;2.49;60.88;101393.75;4376308;32;34277;-83
2024/01/30 03:31:19;;;;;;;;;;;;;;;2.55;60.70;101383.13;4374875;32;34445;-86
2024/01/30 03:33:46;;;;;;;;;;;;;;;2.59;60.40;101390.28;4370087;32;34390;-84
2024/01/30 03:36:14;;;;;;;;;;;;;;;2.67;59.98;101386.66;4375762;32;33476;-86
2024/01/30 03:38:42;;;;;;;;;;;;;;;2.60;60.00;101382.72;4377287;32;34033;-83
2024/01/30 03:41:11;;;;;;;;;;;;;;;2.58;60.11;101383.38;4376948;32;35306;-86
2024/01/30 03:43:38;;;;;;;;;;;;;;;2.52;60.25;101377.75;4374871;32;33931;-83
2024/01/30 03:46:05;;;;;;;;;;;;;;;2.63;59.57;101371.81;4375562;32;33674;-87
2024/01/30 03:48:33;;;;;;;;;;;;;;;2.44;59.62;101374.59;4375997;32;34110;-83
2024/01/30 03:51:00;;;;;;;;;;;;;;;2.50;59.54;101369.03;4373260;32;34472;-86
2024/01/30 03:53:27;;;;;;;;;;;;;;;2.57;59.16;101361.09;4369125;32;34753;-83
2024/01/30 03:55:55;;;;;;;;;;;;;;;2.60;58.81;101363.91;4375236;32;32229;-86
2024/01/30 03:58:22;;;;;;;;;;;;;;;2.53;58.75;101353.94;4377481;32;34782;-84
2024/01/30 04:00:49;;;;;;;;;;;;;;;2.48;58.66;101363.81;4374475;32;34443;-86
2024/01/30 04:03:17;;;;;;;;;;;;;;;2.36;59.15;101363.72;4381141;32;34348;-82
2024/01/30 04:05:44;;;;;;;;;;;;;;;2.41;58.93;101364.97;4388671;32;34303;-85
2024/01/30 04:08:12;;;;;;;;;;;;;;;2.37;58.91;101365.50;4385713;32;35337;-85
2024/01/30 04:10:39;;;;;;;;;;;;;;;2.38;58.77;101367.28;4378285;32;34161;-83
2024/01/30 04:13:19;;;;;;;;;;;;;;;2.34;58.49;101357.56;4376059;32;35056;-84
2024/01/30 04:15:47;;;;;;;;;;;;;;;2.28;58.91;101357.09;4375933;32;33976;-83
2024/01/30 04:18:14;;;;;;;;;;;;;;;2.32;58.80;101359.13;4375855;32;33968;-84
2024/01/30 04:20:41;;;;;;;;;;;;;;;2.30;58.54;101358.09;4378596;32;34500;-87
2024/01/30 04:23:09;;;;;;;;;;;;;;;2.30;58.66;101349.53;4373595;32;34512;-85
2024/01/30 04:25:36;;;;;;;;;;;;;;;2.27;58.67;101349.28;4364758;32;33002;-82
2024/01/30 04:28:04;;;;;;;;;;;;;;;2.22;59.03;101355.72;4375945;32;34821;-84
2024/01/30 04:30:31;;;;;;;;;;;;;;;2.23;59.13;101349.81;4375825;32;34426;-84
2024/01/30 04:32:58;;;;;;;;;;;;;;;2.19;59.32;101351.22;4376559;32;35201;-83
2024/01/30 04:35:26;;;;;;;;;;;;;;;2.22;59.20;101356.59;4375182;32;33522;-84
2024/01/30 04:37:53;;;;;;;;;;;;;;;2.18;59.17;101352.00;4375842;32;34826;-86
2024/01/30 04:40:21;;;;;;;;;;;;;;;2.14;59.21;101358.53;4372236;32;34464;-84
2024/01/30 04:42:48;;;;;;;;;;;;;;;2.11;59.25;101358.28;4374586;32;35136;-83
2024/01/30 04:45:16;;;;;;;;;;;;;;;2.19;58.99;101361.47;4377548;32;33080;-83
2024/01/30 04:47:43;;;;;;;;;;;;;;;2.21;58.94;101362.50;4375155;32;34374;-83
2024/01/30 04:50:10;;;;;;;;;;;;;;;2.14;59.35;101363.66;4375285;32;34389;-84
2024/01/30 04:52:38;;;;;;;;;;;;;;;2.16;59.35;101366.34;4374792;32;35508;-82
2024/01/30 04:55:05;;;;;;;;;;;;;;;2.15;59.34;101365.44;4375218;32;33900;-82
2024/01/30 04:57:33;;;;;;;;;;;;;;;2.17;59.14;101373.25;4376958;32;34723;-84
2024/01/30 05:00:01;;;;;;;;;;;;;;;2.21;58.67;101365.06;4378986;32;34073;-84
2024/01/30 05:02:28;;;;;;;;;;;;;;;2.17;58.42;101371.59;4379546;32;33793;-82
2024/01/30 05:04:55;;;;;;;;;;;;;;;2.09;58.52;101364.94;4378143;32;33065;-82
2024/01/30 05:07:23;;;;;;;;;;;;;;;2.13;58.52;101372.09;4375885;32;34159;-83
2024/01/30 05:09:50;;;;;;;;;;;;;;;2.13;58.48;101368.66;4363231;32;33912;-83
2024/01/30 05:12:18;;;;;;;;;;;;;;;1.98;58.45;101377.62;4374865;32;34895;-82
2024/01/30 05:14:47;;;;;;;;;;;;;;;2.00;58.66;101384.66;4373768;32;33127;-83
2024/01/30 05:17:14;;;;;;;;;;;;;;;2.05;58.60;101377.38;4375012;32;34999;-82
2024/01/30 05:19:42;;;;;;;;;;;;;;;1.99;59.04;101382.87;4373531;32;34293;-84
2024/01/30 05:22:09;;;;;;;;;;;;;;;2.01;59.35;101385.53;4374783;32;34159;-82
2024/01/30 05:24:37;;;;;;;;;;;;;;;2.08;59.11;101382.72;4375176;32;33107;-84
2024/01/30 05:27:04;;;;;;;;;;;;;;;1.98;59.46;101391.31;4378304;32;33790;-84
2024/01/30 05:29:32;;;;;;;;;;;;;;;1.99;59.67;101392.22;4377233;32;34471;-83
2024/01/30 05:31:59;;;;;;;;;;;;;;;2.03;59.32;101389.13;4380987;32;34404;-82
2024/01/30 05:34:26;;;;;;;;;;;;;;;1.97;59.37;101388.63;4378850;32;34078;-82
2024/01/30 05:36:54;;;;;;;;;;;;;;;1.98;59.29;101391.31;4375909;32;34160;-85
2024/01/30 05:39:21;;;;;;;;;;;;;;;2.03;59.19;101399.37;4374911;32;33892;-82
2024/01/30 05:41:48;;;;;;;;;;;;;;;2.07;58.80;101392.06;4374142;32;34106;-82
2024/01/30 05:44:16;;;;;;;;;;;;;;;2.09;58.61;101399.87;4375236;32;34061;-83
2024/01/30 05:46:43;;;;;;;;;;;;;;;1.95;58.92;101399.63;4374908;32;34864;-82
2024/01/30 05:49:10;;;;;;;;;;;;;;;1.92;59.02;101399.37;4374461;32;34366;-83
2024/01/30 05:51:38;;;;;;;;;;;;;;;1.99;58.63;101393.09;4376819;32;33122;-82
2024/01/30 05:54:05;;;;;;;;;;;;;;;1.99;58.34;101402.44;4373539;32;33282;-82
2024/01/30 05:56:32;;;;;;;;;;;;;;;1.90;58.43;101397.47;4377623;32;34920;-83
2024/01/30 05:59:00;;;;;;;;;;;;;;;1.90;58.54;101403.47;4374857;32;35011;-82
2024/01/30 06:01:28;;;;;;;;;;;;;;;1.81;58.69;101400.13;4376355;32;33133;-83
2024/01/30 06:03:56;;;;;;;;;;;;;;;1.80;59.05;101407.69;4384521;32;33343;-82
2024/01/30 06:06:23;;;;;;;;;;;;;;;1.86;58.98;101401.44;4378434;32;34148;-82
2024/01/30 06:08:51;;;;;;;;;;;;;;;1.91;58.36;101395.03;4374563;32;34322;-83
2024/01/30 06:11:18;;;;;;;;;;;;;;;1.82;58.53;101394.28;4374176;32;34289;-82
2024/01/30 06:13:46;;;;;;;;;;;;;;;1.92;58.24;101399.37;4374433;32;34277;-83
2024/01/30 06:16:14;;;;;;;;;;;;;;;1.81;58.21;101404.38;4374884;32;34567;-83
2024/01/30 06:18:41;;;;;;;;;;;;;;;1.79;58.29;101398.25;4374271;32;34209;-85
2024/01/30 06:21:09;;;;;;;;;;;;;;;1.79;58.32;101404.25;4376626;32;34915;-85
2024/01/30 06:23:39;;;;;;;;;;;;;;;1.90;58.27;101397.47;4373079;32;33495;-86
2024/01/30 06:26:07;;;;;;;;;;;;;;;1.81;58.19;101404.38;4373653;32;34838;-84
2024/01/30 06:28:34;;;;;;;;;;;;;;;1.74;58.45;101402.94;4373707;32;34173;-85
2024/01/30 06:31:01;;;;;;;;;;;;;;;1.85;58.38;101407.28;4374251;32;34052;-84
2024/01/30 06:33:29;;;;;;;;;;;;;;;1.80;58.64;101406.03;4373284;32;34545;-85
2024/01/30 06:35:56;;;;;;;;;;;;;;;1.81;58.53;101410.37;4374377;32;34180;-83
2024/01/30 06:38:24;;;;;;;;;;;;;;;1.78;58.74;101414.31;4374089;32;34420;-87
2024/01/30 06:40:51;;;;;;;;;;;;;;;1.77;59.00;101410.00;4374391;32;34727;-84
2024/01/30 06:43:19;;;;;;;;;;;;;;;1.83;58.90;101413.06;4374417;32;33653;-85
2024/01/30 06:45:46;;;;;;;;;;;;;;;1.82;59.02;101414.75;4374079;32;34281;-85
2024/01/30 06:48:14;;;;;;;;;;;;;;;1.66;59.83;101415.09;4375998;32;33980;-85
2024/01/30 06:50:41;;;;;;;;;;;;;;;1.64;60.28;101411.53;4376355;32;35027;-84
2024/01/30 06:53:09;;;;;;;;;;;;;;;1.68;60.52;101417.78;4375864;32;34177;-85
2024/01/30 06:55:36;;;;;;;;;;;;;;;1.72;60.62;101414.72;4375729;32;33869;-86
2024/01/30 06:58:03;;;;;;;;;;;;;;;1.73;60.83;101411.41;4376460;32;34337;-84
2024/01/30 07:00:31;;;;;;;;;;;;;;;1.92;60.64;101412.16;4376550;32;35176;-84
2024/01/30 07:02:58;;;;;;;;;;;;;;;1.94;60.50;101420.88;4376488;32;33012;-82
2024/01/30 07:05:25;;;;;;;;;;;;;;;1.97;60.59;101419.31;4370148;32;34594;-84
2024/01/30 07:07:52;;;;;;;;;;;;;;;1.94;60.92;101425.97;4376051;32;34261;-85
2024/01/30 07:10:20;;;;;;;;;;;;;;;1.98;61.14;101427.13;4376602;32;33811;-85
2024/01/30 07:12:47;;;;;;;;;;;;;;;1.95;61.43;101427.75;4376546;32;34161;-83
2024/01/30 07:15:19;;;;;;;;;;;;;;;2.02;61.59;101426.63;4376267;32;34194;-85
2024/01/30 07:17:47;;;;;;;;;;;;;;;2.21;61.06;101421.34;4376368;32;34347;-84
2024/01/30 07:20:14;;;;;;;;;;;;;;;2.07;61.37;101422.75;4376142;32;34186;-83
2024/01/30 07:22:44;;;;;;;;;;;;;;;2.10;61.55;101424.69;4376414;32;33356;-84
2024/01/30 07:25:12;;;;;;;;;;;;;;;2.08;61.95;101424.53;4376558;32;33949;-85
2024/01/30 07:27:39;;;;;;;;;;;;;;;2.09;62.27;101426.37;4376377;32;33523;-84
2024/01/30 07:30:06;;;;;;;;;;;;;;;2.18;62.42;101423.66;4376047;32;33944;-83
2024/01/30 07:32:34;;;;;;;;;;;;;;;2.19;62.49;101428.00;4376350;32;35026;-85
2024/01/30 07:35:01;;;;;;;;;;;;;;;2.31;62.47;101417.88;4375869;32;34361;-83
2024/01/30 07:37:35;;;;;;;;;;;;;;;2.34;62.70;101419.00;4376203;32;34581;-85
2024/01/30 07:40:03;;;;;;;;;;;;;;;2.23;63.79;101414.69;4376452;32;34930;-85
2024/01/30 07:42:31;;;;;;;;;;;;;;;2.40;63.54;101416.06;4375733;32;31928;-85
2024/01/30 07:44:59;;;;;;;;;;;;;;;2.51;63.38;101414.38;4375523;32;34270;-87
2024/01/30 07:47:26;;;;;;;;;;;;;;;2.44;63.87;101413.00;4376505;32;34498;-86
2024/01/30 07:49:54;;;;;;;;;;;;;;;2.62;63.26;101411.91;4376167;32;34219;-86
2024/01/30 07:52:22;;;;;;;;;;;;;;;2.68;63.22;101402.13;4376139;32;34394;-86
2024/01/30 07:54:50;;;;;;;;;;;;;;;2.72;63.29;101410.97;4375893;32;34330;-86
2024/01/30 07:57:17;;;;;;;;;;;;;;;2.79;63.31;101407.22;4376518;32;33586;-87
2024/01/30 07:59:45;;;;;;;;;;;;;;;2.87;63.27;101408.72;4374233;32;34319;-87
2024/01/30 08:02:12;;;;;;;;;;;;;;;2.99;63.09;101408.81;4375515;32;34184;-85
2024/01/30 08:04:40;;;;;;;;;;;;;;;2.87;63.80;101414.75;4376109;32;34372;-84
2024/01/30 08:07:07;;;;;;;;;;;;;;;3.07;63.44;101417.97;4376256;32;34270;-85
2024/01/30 08:09:35;;;;;;;;;;;;;;;3.13;63.46;101413.34;4376032;32;33997;-88
2024/01/30 08:12:02;;;;;;;;;;;;;;;3.26;63.27;101421.25;4375992;32;33612;-86
2024/01/30 08:14:29;;;;;;;;;;;;;;;3.25;63.74;101423.66;4375383;32;34815;-86
2024/01/30 08:16:57;;;;;;;;;;;;;;;3.16;64.63;101418.72;4376056;32;34478;-87
2024/01/30 08:19:24;;;;;;;;;;;;;;;2.44;67.77;101425.78;4375765;32;34739;-86
2024/01/30 08:21:51;;;;;;;;;;;;;;;2.67;67.86;101427.63;4375619;32;32991;-87
2024/01/30 08:24:19;;;;;;;;;;;;;;;2.19;70.43;101425.44;4375208;32;33854;-85
2024/01/30 08:26:46;;;;;;;;;;;;;;;1.93;72.22;101426.75;4375984;32;34494;-86
2024/01/30 08:29:13;;;;;;;;;;;;;;;2.26;71.61;101427.72;4376023;32;34331;-87
2024/01/30 08:31:41;;;;;;;;;;;;;;;1.94;72.81;101431.09;4375756;32;33037;-88
2024/01/30 08:34:08;;;;;;;;;;;;;;;2.29;72.63;101434.78;4375639;32;35065;-86
2024/01/30 08:36:36;;;;;;;;;;;;;;;2.37;72.37;101438.84;4375400;32;35177;-85
2024/01/30 08:39:03;;;;;;;;;;;;;;;2.35;72.96;101436.19;4375966;32;34421;-88
2024/01/30 08:41:32;;;;;;;;;;;;;;;2.41;73.30;101441.78;4376088;32;33363;-88
2024/01/30 08:44:00;;;;;;;;;;;;;;;2.51;73.57;101442.56;4375715;32;34042;-88
2024/01/30 08:46:27;;;;;;;;;;;;;;;2.49;73.87;101449.19;4375714;32;34644;-86
2024/01/30 08:48:55;;;;;;;;;;;;;;;3.01;72.48;101443.13;4375913;32;33867;-87
2024/01/30 08:51:22;;;;;;;;;;;;;;;3.05;72.10;101450.28;4375705;32;33166;-86
2024/01/30 08:53:50;;;;;;;;;;;;;;;3.06;71.89;101444.38;4376138;32;32909;-88
2024/01/30 08:56:19;;;;;;;;;;;;;;;2.85;72.19;101436.81;4375703;32;34988;-85
2024/01/30 08:58:46;;;;;;;;;;;;;;;2.80;72.94;101437.19;4375394;32;34278;-85
2024/01/30 09:01:13;;;;;;;;;;;;;;;2.99;72.79;101444.69;4375721;32;34360;-85
2024/01/30 09:03:43;;;;;;;;;;;;;;;3.56;70.87;101438.09;4375635;32;35104;-84
2024/01/30 09:06:10;;;;;;;;;;;;;;;3.51;70.79;101443.63;4375937;32;34382;-86
2024/01/30 09:08:38;;;;;;;;;;;;;;;3.26;71.28;101431.50;4375549;32;34960;-85
2024/01/30 09:11:13;;;;;;;;;;;;;;;3.09;70.65;101434.38;4374619;32;33287;-85
2024/01/30 09:13:40;;;;;;;;;;;;;;;3.60;69.73;101431.53;4374899;32;33950;-85
2024/01/30 09:16:07;;;;;;;;;;;;;;;3.46;69.18;101424.44;4375333;32;35207;-85
2024/01/30 09:18:35;;;;;;;;;;;;;;;3.10;69.74;101433.59;4375724;32;35015;-85
2024/01/30 09:21:02;;;;;;;;;;;;;;;2.96;70.59;101434.22;4375896;32;33193;-85
2024/01/30 09:23:29;;;;;;;;;;;;;;;2.66;71.57;101441.22;4374772;32;34243;-85
2024/01/30 09:25:57;;;;;;;;;;;;;;;2.57;72.56;101433.66;4374596;32;33693;-85
2024/01/30 09:28:24;;;;;;;;;;;;;;;2.82;71.97;101441.69;4374766;32;35216;-83
2024/01/30 09:30:54;;;;;;;;;;;;;;;3.21;71.09;101439.56;4375629;32;33633;-87
2024/01/30 09:33:21;;;;;;;;;;;;;;;3.38;71.12;101431.53;4375283;32;33479;-88
2024/01/30 09:35:48;;;;;;;;;;;;;;;3.26;71.42;101431.50;4375163;32;34375;-85
2024/01/30 09:38:16;;;;;;;;;;;;;;;3.69;70.47;101423.66;4375408;32;33820;-85
2024/01/30 09:40:43;;;;;;;;;;;;;;;3.47;70.66;101428.78;4375095;32;32976;-83
2024/01/30 09:43:11;;;;;;;;;;;;;;;2.97;73.39;101430.88;4374199;32;33663;-85
2024/01/30 09:45:39;;;;;;;;;;;;;;;3.48;72.33;101435.69;4373407;32;35893;-87
2024/01/30 09:48:06;;;;;;;;;;;;;;;3.75;71.46;101435.28;4375248;32;33701;-87
2024/01/30 09:50:36;;;;;;;;;;;;;;;4.17;70.14;101425.53;4375070;32;32786;-87
2024/01/30 09:53:03;;;;;;;;;;;;;;;3.80;71.24;101427.91;4361574;32;34293;-87
2024/01/30 09:55:30;;;;;;;;;;;;;;;3.69;72.33;101429.66;4374831;32;34746;-86
2024/01/30 09:57:59;;;;;;;;;;;;;;;4.00;71.30;101426.84;4374668;32;35003;-87
2024/01/30 10:00:27;;;;;;;;;;;;;;;4.15;70.74;101422.84;4374773;32;33484;-86
2024/01/30 10:02:55;;;;;;;;;;;;;;;3.94;71.16;101427.28;4374978;32;33935;-86
2024/01/30 10:05:22;;;;;;;;;;;;;;;3.49;72.94;101433.28;4375004;32;35130;-85
2024/01/30 10:07:50;;;;;;;;;;;;;;;4.12;71.12;101427.75;4361276;32;35176;-84
2024/01/30 10:10:17;;;;;;;;;;;;;;;4.21;70.70;101418.19;4373997;32;32908;-85
2024/01/30 10:12:44;;;;;;;;;;;;;;;4.06;70.55;101428.22;4374623;32;33936;-84
2024/01/30 10:15:12;;;;;;;;;;;;;;;3.94;70.50;101431.50;4374266;32;34964;-83
2024/01/30 10:17:42;;;;;;;;;;;;;;;3.73;71.18;101421.41;4373850;32;34001;-85
2024/01/30 10:20:09;;;;;;;;;;;;;;;3.97;71.31;101432.63;4374265;32;33449;-84
2024/01/30 10:22:39;;;;;;;;;;;;;;;4.12;70.43;101422.63;4375593;32;35038;-86
2024/01/30 10:25:07;;;;;;;;;;;;;;;3.94;71.40;101423.81;4362874;32;35075;-85
2024/01/30 10:27:34;;;;;;;;;;;;;;;3.70;71.95;101417.72;4372637;32;33974;-85
2024/01/30 10:30:03;;;;;;;;;;;;;;;3.78;71.93;101422.66;4361754;32;33690;-85
2024/01/30 10:32:31;;;;;;;;;;;;;;;3.76;72.32;101420.78;4361949;32;33954;-86
2024/01/30 10:34:58;;;;;;;;;;;;;;;4.19;71.16;101414.59;4361692;32;35562;-85
2024/01/30 10:37:26;;;;;;;;;;;;;;;4.00;72.33;101411.44;4361903;32;33823;-85
2024/01/30 10:39:57;;;;;;;;;;;;;;;3.96;72.57;101409.44;4360556;32;33369;-85
2024/01/30 10:42:25;;;;;;;;;;;;;;;3.73;73.48;101416.28;4360115;32;33940;-85
2024/01/30 10:45:12;;;;;;;;;;;;;;;3.70;73.48;101416.06;4360874;32;34441;-85
2024/01/30 10:47:41;;;;;;;;;;;;;;;3.65;72.74;101407.13;4348011;32;35120;-83
2024/01/30 10:50:08;;;;;;;;;;;;;;;3.82;72.20;101411.84;4361613;32;33358;-85
2024/01/30 10:52:36;;;;;;;;;;;;;;;3.56;73.39;101408.97;4361390;32;35010;-86
2024/01/30 10:55:05;;;;;;;;;;;;;;;3.73;72.91;101394.88;4361272;32;34197;-85
2024/01/30 10:57:33;;;;;;;;;;;;;;;3.70;73.35;101392.97;4361537;32;34019;-84
2024/01/30 11:00:00;;;;;;;;;;;;;;;4.33;71.55;101388.28;4360111;32;34006;-85
2024/01/30 11:02:28;;;;;;;;;;;;;;;4.20;71.49;101383.00;4372100;32;35070;-83
2024/01/30 11:04:58;;;;;;;;;;;;;;;4.00;71.54;101383.22;4372023;32;35348;-85
2024/01/30 11:07:27;;;;;;;;;;;;;;;4.41;70.59;101385.38;4359745;32;35239;-86
2024/01/30 11:10:02;;;;;;;;;;;;;;;4.44;70.72;101380.47;4361289;32;34098;-84
2024/01/30 11:12:35;;;;;;;;;;;;;;;4.12;70.90;101373.84;4361486;32;35156;-86
2024/01/30 11:15:06;;;;;;;;;;;;;;;3.85;71.94;101371.03;4361651;32;34261;-86
2024/01/30 11:17:40;;;;;;;;;;;;;;;4.52;69.66;101371.63;4361346;32;34998;-83
2024/01/30 11:20:15;;;;;;;;;;;;;;;4.32;70.23;101370.19;4361676;32;33146;-85
2024/01/30 11:22:43;;;;;;;;;;;;;;;4.17;70.81;101363.91;4360630;32;35206;-85
2024/01/30 11:25:12;;;;;;;;;;;;;;;3.76;72.13;101356.63;4372126;32;34149;-85
2024/01/30 11:27:40;;;;;;;;;;;;;;;4.27;71.39;101346.72;4371999;32;34948;-86
2024/01/30 11:30:07;;;;;;;;;;;;;;;4.60;70.48;101355.09;4360771;32;33597;-85
2024/01/30 11:32:35;;;;;;;;;;;;;;;4.67;68.90;101349.63;4360725;32;33915;-88
2024/01/30 11:35:03;;;;;;;;;;;;;;;4.67;68.68;101349.63;4361244;32;34904;-87
2024/01/30 11:37:31;;;;;;;;;;;;;;;4.32;69.67;101353.13;4360479;32;34899;-88
2024/01/30 11:39:58;;;;;;;;;;;;;;;3.86;71.41;101351.38;4360759;32;33599;-83
2024/01/30 11:42:26;;;;;;;;;;;;;;;4.18;71.03;101356.34;4360876;32;34244;-85
2024/01/30 11:44:53;;;;;;;;;;;;;;;4.97;68.90;101355.13;4372341;32;35289;-87
2024/01/30 11:47:22;;;;;;;;;;;;;;;4.51;69.19;101349.28;4361442;32;34284;-87
2024/01/30 11:49:49;;;;;;;;;;;;;;;4.67;69.01;101353.88;4361387;32;33199;-87
2024/01/30 11:52:16;;;;;;;;;;;;;;;4.61;69.19;101344.91;4360663;32;33743;-87
2024/01/30 11:54:44;;;;;;;;;;;;;;;4.26;69.19;101332.13;4359474;32;34256;-88
2024/01/30 11:57:11;;;;;;;;;;;;;;;3.96;70.11;101333.34;4361518;32;34529;-85
2024/01/30 11:59:38;;;;;;;;;;;;;;;4.06;70.38;101329.78;4360568;32;33540;-85
2024/01/30 12:02:06;;;;;;;;;;;;;;;4.54;68.63;101331.53;4361515;32;33893;-86
2024/01/30 12:04:33;;;;;;;;;;;;;;;4.69;67.66;101324.00;4360834;32;34196;-86
2024/01/30 12:07:01;;;;;;;;;;;;;;;4.48;68.00;101320.84;4360662;32;35152;-85
2024/01/30 12:09:30;;;;;;;;;;;;;;;5.00;66.75;101309.97;4359978;32;34162;-85
2024/01/30 12:11:58;;;;;;;;;;;;;;;5.02;66.55;101308.37;4360831;32;35005;-85
2024/01/30 12:14:26;;;;;;;;;;;;;;;4.92;66.03;101300.81;4360348;32;34525;-86
2024/01/30 12:16:53;;;;;;;;;;;;;;;4.91;66.01;101300.72;4360653;32;33935;-85
2024/01/30 12:19:24;;;;;;;;;;;;;;;4.50;66.81;101304.72;4360492;32;33485;-85
2024/01/30 12:21:55;;;;;;;;;;;;;;;4.78;66.21;101296.41;4360548;32;33966;-86
2024/01/30 12:24:23;;;;;;;;;;;;;;;5.27;64.72;101285.25;4361035;32;34524;-86
2024/01/30 12:27:10;;;;;;;;;;;;;;;4.76;64.96;101291.16;4359276;32;34546;-86
2024/01/30 12:29:41;;;;;;;;;;;;;;;5.32;64.25;101294.16;4360531;32;33882;-85
2024/01/30 12:32:08;;;;;;;;;;;;;;;5.21;64.18;101289.97;4361000;32;34031;-86
2024/01/30 12:34:40;;;;;;;;;;;;;;;5.68;63.05;101289.69;4360643;32;34084;-86
2024/01/30 12:37:24;;;;;;;;;;;;;;;5.85;62.09;101293.38;4359714;32;34716;-84
2024/01/30 12:39:53;;;;;;;;;;;;;;;6.08;61.16;101284.63;4360578;32;34146;-86
2024/01/30 12:42:23;;;;;;;;;;;;;;;5.52;61.81;101280.06;4360190;32;33928;-86
2024/01/30 12:44:53;;;;;;;;;;;;;;;5.78;60.86;101276.63;4360210;32;34428;-84
2024/01/30 12:47:23;;;;;;;;;;;;;;;5.52;60.91;101282.62;4359681;32;35211;-83
2024/01/30 12:49:53;;;;;;;;;;;;;;;5.99;59.83;101271.16;4359785;32;33792;-83
2024/01/30 12:52:21;;;;;;;;;;;;;;;6.19;58.99;101270.75;4360606;32;34724;-82